createdAt,value
2022-08-05T00:01:36.145Z,69.40
2022-08-05T00:04:18.688Z,68.75
2022-08-05T00:06:46.995Z,69.64
2022-08-05T00:09:15.891Z,69.66
2022-08-05T00:11:49.497Z,69.96
2022-08-05T00:14:29.146Z,69.39
2022-08-05T00:16:57.012Z,70.50
2022-08-05T00:19:33.830Z,70.04
2022-08-05T00:22:11.734Z,69.48
2022-08-05T00:24:42.555Z,69.34
2022-08-05T00:27:10.488Z,69.48
2022-08-05T00:29:43.664Z,69.63
2022-08-05T00:32:15.336Z,68.88
2022-08-05T00:35:04.789Z,70.02
2022-08-05T00:37:35.881Z,69.62
2022-08-05T00:40:26.613Z,70.31
2022-08-05T00:42:59.799Z,70.46
2022-08-05T00:45:39.162Z,70.29
2022-08-05T00:48:27.460Z,69.92
2022-08-05T00:50:58.538Z,70.29
2022-08-05T00:54:00.618Z,69.96
2022-08-05T00:56:14.947Z,70.61
2022-08-05T00:58:45.428Z,71.22
2022-08-05T01:01:15.429Z,70.50
2022-08-05T01:03:52.608Z,70.80
2022-08-05T01:06:19.558Z,70.58
2022-08-05T01:08:47.393Z,70.26
2022-08-05T01:11:33.721Z,70.44
2022-08-05T01:14:18.101Z,70.54
2022-08-05T01:17:05.367Z,70.18
2022-08-05T01:20:02.184Z,70.62
2022-08-05T01:23:23.362Z,70.56
2022-08-05T01:26:35.630Z,70.73
2022-08-05T01:29:11.155Z,70.34
2022-08-05T01:31:44.885Z,70.93
2022-08-05T01:34:26.688Z,71.15
2022-08-05T01:37:24.409Z,70.73
2022-08-05T01:39:58.922Z,71.47
2022-08-05T01:42:28.412Z,71.72
2022-08-05T01:45:02.322Z,71.34
2022-08-05T01:47:38.825Z,71.41
2022-08-05T01:50:17.727Z,71.07
2022-08-05T01:52:50.001Z,71.30
2022-08-05T01:55:20.877Z,71.09
2022-08-05T01:58:09.771Z,71.88
2022-08-05T02:00:42.370Z,72.22
2022-08-05T02:03:39.749Z,72.31
2022-08-05T02:06:23.918Z,71.96
2022-08-05T02:08:58.949Z,72.77
2022-08-05T02:11:52.481Z,71.92
2022-08-05T02:14:47.103Z,72.22
2022-08-05T02:18:27.916Z,72.16
2022-08-05T02:20:22.250Z,73.01
2022-08-05T02:23:01.470Z,73.02
2022-08-05T02:25:49.419Z,72.94
2022-08-05T02:28:28.633Z,72.47
2022-08-05T02:31:21.592Z,73.79
2022-08-05T02:34:11.805Z,73.24
2022-08-05T02:36:49.417Z,73.61
2022-08-05T02:39:20.528Z,73.46
2022-08-05T02:42:00.475Z,72.54
2022-08-05T02:44:30.585Z,73.12
2022-08-05T02:47:00.711Z,73.04
2022-08-05T02:49:36.935Z,73.45
2022-08-05T02:52:30.167Z,73.80
2022-08-05T02:55:01.705Z,74.18
2022-08-05T02:58:11.773Z,73.47
2022-08-05T03:00:20.357Z,73.60
2022-08-05T03:02:49.034Z,74.55
2022-08-05T03:05:17.400Z,73.37
2022-08-05T03:08:04.603Z,73.73
2022-08-05T03:10:35.998Z,74.39
2022-08-05T03:13:16.885Z,74.14
2022-08-05T03:15:48.473Z,74.34
2022-08-05T03:18:18.911Z,74.44
2022-08-05T03:20:56.883Z,74.57
2022-08-05T03:23:24.789Z,74.61
2022-08-05T03:26:04.281Z,75.08
2022-08-05T03:28:38.833Z,74.04
2022-08-05T03:31:06.363Z,73.74
2022-08-05T03:33:51.080Z,74.79
2022-08-05T03:36:30.126Z,73.73
2022-08-05T03:38:58.113Z,74.16
2022-08-05T03:41:25.416Z,74.24
2022-08-05T03:44:11.508Z,75.43
2022-08-05T03:46:38.997Z,75.02
2022-08-05T03:49:06.548Z,75.32
2022-08-05T03:52:48.462Z,75.53
2022-08-05T03:56:04.182Z,75.08
2022-08-05T03:57:45.943Z,75.41
2022-08-05T04:00:16.400Z,75.29
2022-08-05T04:02:57.578Z,75.53
2022-08-05T04:05:33.214Z,75.13
2022-08-05T04:08:30.180Z,75.85
2022-08-05T04:10:55.646Z,75.88
2022-08-05T04:13:22.764Z,76.65
2022-08-05T04:16:02.870Z,76.50
2022-08-05T04:18:32.200Z,76.18
2022-08-05T04:21:02.467Z,76.10
2022-08-05T04:23:57.151Z,76.30
2022-08-05T04:26:19.173Z,75.98
2022-08-05T04:28:51.306Z,77.13
2022-08-05T04:31:19.915Z,76.31
2022-08-05T04:34:18.182Z,75.64
2022-08-05T04:36:45.811Z,76.87
2022-08-05T04:39:16.910Z,75.00
2022-08-05T04:41:45.860Z,75.15
2022-08-05T04:44:21.012Z,75.97
2022-08-05T04:46:51.411Z,76.00
2022-08-05T04:49:24.572Z,76.48
2022-08-05T04:52:00.229Z,76.44
2022-08-05T04:54:27.613Z,75.77
2022-08-05T04:56:58.953Z,75.54
2022-08-05T04:59:39.131Z,75.50
2022-08-05T05:02:41.223Z,74.83
2022-08-05T05:05:02.818Z,75.56
2022-08-05T05:07:32.181Z,75.25
2022-08-05T05:10:04.076Z,75.83
2022-08-05T05:12:31.168Z,76.06
2022-08-05T05:14:58.156Z,76.11
2022-08-05T05:17:55.573Z,76.13
2022-08-05T05:20:13.572Z,75.79
2022-08-05T05:22:41.535Z,75.25
2022-08-05T05:25:16.504Z,75.27
2022-08-05T05:27:53.591Z,75.94
2022-08-05T05:30:31.184Z,76.01
2022-08-05T05:33:09.042Z,75.57
2022-08-05T05:35:45.490Z,76.16
2022-08-05T05:38:13.798Z,75.52
2022-08-05T05:40:50.187Z,75.20
2022-08-05T05:43:22.112Z,75.60
2022-08-05T05:46:12.270Z,74.95
2022-08-05T05:48:44.027Z,75.59
2022-08-05T05:51:13.090Z,74.91
2022-08-05T05:53:54.072Z,75.53
2022-08-05T05:56:32.964Z,75.39
2022-08-05T05:59:08.056Z,74.75
2022-08-05T06:01:40.761Z,75.09
2022-08-05T06:04:24.483Z,74.80
2022-08-05T06:06:51.458Z,75.01
2022-08-05T06:09:25.596Z,74.23
2022-08-05T06:12:01.401Z,74.32
2022-08-05T06:14:33.274Z,73.45
2022-08-05T06:17:31.864Z,73.85
2022-08-05T06:19:56.958Z,71.98
2022-08-05T06:22:35.335Z,70.53
2022-08-05T06:25:24.535Z,72.11
2022-08-05T06:28:10.783Z,69.81
2022-08-05T06:30:38.564Z,69.69
2022-08-05T06:33:05.501Z,67.74
2022-08-05T06:36:07.341Z,69.00
2022-08-05T06:38:36.407Z,67.96
2022-08-05T06:41:05.305Z,64.42
2022-08-05T06:43:57.506Z,64.54
2022-08-05T06:46:23.778Z,63.02
2022-08-05T06:48:58.756Z,63.15
2022-08-05T06:51:29.794Z,60.56
2022-08-05T06:54:02.528Z,60.32
2022-08-05T06:56:33.336Z,60.16
2022-08-05T06:59:03.643Z,60.09
2022-08-05T07:01:35.707Z,58.17
2022-08-05T07:04:03.888Z,58.98
2022-08-05T07:06:31.941Z,57.53
2022-08-05T07:09:00.288Z,57.62
2022-08-05T07:11:32.893Z,56.49
2022-08-05T07:14:29.600Z,55.89
2022-08-05T07:18:00.996Z,58.59
2022-08-05T07:22:39.703Z,58.21
2022-08-05T07:25:54.805Z,57.31
2022-08-05T07:28:03.800Z,56.04
2022-08-05T07:30:38.456Z,54.56
2022-08-05T07:33:15.607Z,54.48
2022-08-05T07:36:01.750Z,53.78
2022-08-05T07:38:33.803Z,52.78
2022-08-05T07:42:09.232Z,52.74
2022-08-05T07:44:00.500Z,49.19
2022-08-05T07:46:31.308Z,47.47
2022-08-05T07:49:05.964Z,47.04
2022-08-05T07:51:41.079Z,47.30
2022-08-05T07:54:26.772Z,48.06
2022-08-05T07:57:02.704Z,48.41
2022-08-05T07:59:46.977Z,46.89
2022-08-05T08:02:17.564Z,47.50
2022-08-05T08:04:49.761Z,45.12
2022-08-05T08:07:22.094Z,43.09
2022-08-05T08:09:52.299Z,42.44
2022-08-05T08:12:36.993Z,44.38
2022-08-05T08:15:15.038Z,42.15
2022-08-05T08:17:49.914Z,42.09
2022-08-05T08:20:43.862Z,43.94
2022-08-05T08:24:00.273Z,41.55
2022-08-05T08:25:59.356Z,41.65
2022-08-05T08:28:36.716Z,42.58
2022-08-05T08:31:09.636Z,41.90
2022-08-05T08:33:42.002Z,43.70
2022-08-05T08:36:37.411Z,43.18
2022-08-05T08:38:58.246Z,44.72
2022-08-05T08:41:52.446Z,44.49
2022-08-05T08:45:20.090Z,43.80
2022-08-05T08:47:47.668Z,44.92
2022-08-05T08:50:05.802Z,45.72
2022-08-05T08:52:53.040Z,44.80
2022-08-05T08:56:01.726Z,44.38
2022-08-05T08:58:12.822Z,45.46
2022-08-05T09:00:42.485Z,45.12
2022-08-05T09:03:16.284Z,44.51
2022-08-05T09:06:09.180Z,45.18
2022-08-05T09:08:34.869Z,43.83
2022-08-05T09:11:04.383Z,44.35
2022-08-05T09:14:01.199Z,43.35
2022-08-05T09:16:26.825Z,42.43
2022-08-05T09:18:55.483Z,44.63
2022-08-05T09:22:17.685Z,43.62
2022-08-05T09:24:13.067Z,41.33
2022-08-05T09:26:46.166Z,41.84
2022-08-05T09:29:16.262Z,43.12
2022-08-05T09:32:40.933Z,40.98
2022-08-05T09:34:55.921Z,40.29
2022-08-05T09:38:12.093Z,39.62
2022-08-05T09:40:41.062Z,38.26
2022-08-05T09:43:41.627Z,36.80
2022-08-05T09:46:31.644Z,39.05
2022-08-05T09:49:07.955Z,38.77
2022-08-05T09:51:50.051Z,41.73
2022-08-05T09:54:21.270Z,39.75
2022-08-05T09:56:57.384Z,41.42
2022-08-05T09:59:27.546Z,42.60
2022-08-05T10:01:58.194Z,41.58
2022-08-05T10:04:38.585Z,39.96
2022-08-05T10:07:21.001Z,37.91
2022-08-05T10:10:14.443Z,40.91
2022-08-05T10:12:49.191Z,38.58
2022-08-05T10:15:22.724Z,40.59
2022-08-05T10:18:17.321Z,40.78
2022-08-05T10:20:47.853Z,39.79
2022-08-05T10:23:55.437Z,38.50
2022-08-05T10:26:13.995Z,40.00
2022-08-05T10:28:44.113Z,43.11
2022-08-05T10:32:48.662Z,43.24
2022-08-05T10:34:02.649Z,40.51
2022-08-05T10:36:31.213Z,42.20
2022-08-05T10:39:11.692Z,39.42
2022-08-05T10:42:14.603Z,38.36
2022-08-05T10:44:47.116Z,35.81
2022-08-05T10:47:26.237Z,35.17
2022-08-05T10:50:32.526Z,35.98
2022-08-05T10:53:01.029Z,35.25
2022-08-05T10:55:38.597Z,35.88
2022-08-05T10:58:18.069Z,35.04
2022-08-05T11:00:48.446Z,36.63
2022-08-05T11:03:26.362Z,36.51
2022-08-05T11:06:15.344Z,33.87
2022-08-05T11:09:46.421Z,32.81
2022-08-05T11:12:37.288Z,32.67
2022-08-05T11:15:21.143Z,35.82
2022-08-05T11:17:57.140Z,34.01
2022-08-05T11:20:50.952Z,35.62
2022-08-05T11:24:04.360Z,34.75
2022-08-05T11:26:32.851Z,36.57
2022-08-05T11:29:12.517Z,37.44
2022-08-05T11:31:57.234Z,38.79
2022-08-05T11:34:51.638Z,35.60
2022-08-05T11:38:37.399Z,39.37
2022-08-05T11:41:01.032Z,36.42
2022-08-05T11:44:06.214Z,35.67
2022-08-05T11:46:33.273Z,36.35
2022-08-05T11:49:03.705Z,36.84
2022-08-05T11:51:44.077Z,34.89
2022-08-05T11:54:34.376Z,36.80
2022-08-05T11:57:07.908Z,38.13
2022-08-05T11:59:49.564Z,36.16
2022-08-05T12:02:30.616Z,38.51
2022-08-05T12:05:07.494Z,36.49
2022-08-05T12:08:08.585Z,38.51
2022-08-05T12:10:43.431Z,39.55
2022-08-05T12:13:16.830Z,37.87
2022-08-05T12:15:49.768Z,41.25
2022-08-05T12:18:32.773Z,40.65
2022-08-05T12:21:39.153Z,39.90
2022-08-05T12:24:17.570Z,40.98
2022-08-05T12:26:50.692Z,40.70
2022-08-05T12:29:22.939Z,39.72
2022-08-05T12:32:02.209Z,42.43
2022-08-05T12:34:36.998Z,40.92
2022-08-05T12:37:10.870Z,41.81
2022-08-05T12:39:48.493Z,41.97
2022-08-05T12:42:21.012Z,43.03
2022-08-05T12:44:48.996Z,43.90
2022-08-05T12:47:30.957Z,45.17
2022-08-05T12:50:04.854Z,45.55
2022-08-05T12:52:41.951Z,43.46
2022-08-05T12:55:26.336Z,44.96
2022-08-05T12:58:39.029Z,43.48
2022-08-05T13:02:01.518Z,44.62
2022-08-05T13:03:38.879Z,45.75
2022-08-05T13:06:17.631Z,42.96
2022-08-05T13:08:50.684Z,44.13
2022-08-05T13:11:25.631Z,46.32
2022-08-05T13:14:19.694Z,45.70
2022-08-05T13:16:54.751Z,44.13
2022-08-05T13:19:51.605Z,44.20
2022-08-05T13:22:29.379Z,45.46
2022-08-05T13:25:00.482Z,46.41
2022-08-05T13:27:44.092Z,47.32
2022-08-05T13:30:34.476Z,43.83
2022-08-05T13:33:03.408Z,46.41
2022-08-05T13:35:47.436Z,44.15
2022-08-05T13:38:28.193Z,43.16
2022-08-05T13:41:01.368Z,43.41
2022-08-05T13:43:45.235Z,43.99
2022-08-05T13:46:26.441Z,45.14
2022-08-05T13:49:03.980Z,44.92
2022-08-05T13:51:40.005Z,43.08
2022-08-05T13:54:12.684Z,42.92
2022-08-05T13:56:45.262Z,43.36
2022-08-05T13:59:24.293Z,41.19
2022-08-05T14:02:02.282Z,44.47
2022-08-05T14:04:51.764Z,44.42
2022-08-05T14:07:25.764Z,44.28
2022-08-05T14:10:18.678Z,44.66
2022-08-05T14:12:48.875Z,44.23
2022-08-05T14:16:06.075Z,44.35
2022-08-05T14:18:04.038Z,43.12
2022-08-05T14:20:32.719Z,43.81
2022-08-05T14:23:00.465Z,43.10
2022-08-05T14:25:30.312Z,43.55
2022-08-05T14:27:58.405Z,42.73
2022-08-05T14:30:27.707Z,41.74
2022-08-05T14:32:55.287Z,44.28
2022-08-05T14:35:37.336Z,43.08
2022-08-05T14:38:32.384Z,42.72
2022-08-05T14:41:06.283Z,41.94
2022-08-05T14:43:59.355Z,42.91
2022-08-05T14:46:28.357Z,43.16
2022-08-05T14:48:58.996Z,43.86
2022-08-05T14:51:31.163Z,45.22
2022-08-05T14:54:26.497Z,44.29
2022-08-05T14:56:47.229Z,45.74
2022-08-05T14:59:15.204Z,45.59
2022-08-05T15:01:48.987Z,46.97
2022-08-05T15:04:20.513Z,47.40
2022-08-05T15:06:49.903Z,47.32
2022-08-05T15:09:51.889Z,46.53
2022-08-05T15:12:16.999Z,46.90
2022-08-05T15:14:50.039Z,47.38
2022-08-05T15:17:46.289Z,46.07
2022-08-05T15:20:15.640Z,47.39
2022-08-05T15:22:44.987Z,46.95
2022-08-05T15:25:14.092Z,46.90
2022-08-05T15:27:42.917Z,48.50
2022-08-05T15:30:18.855Z,47.47
2022-08-05T15:32:46.712Z,47.79
2022-08-05T15:35:14.900Z,48.33
2022-08-05T15:38:31.900Z,48.81
2022-08-05T15:41:00.282Z,48.41
2022-08-05T15:43:20.473Z,49.97
2022-08-05T15:46:00.551Z,47.91
2022-08-05T15:48:28.823Z,47.16
2022-08-05T15:50:56.427Z,47.64
2022-08-05T15:53:26.479Z,48.42
2022-08-05T15:56:09.176Z,48.16
2022-08-05T15:58:41.134Z,46.46
2022-08-05T16:01:17.044Z,48.76
2022-08-05T16:03:48.323Z,47.42
2022-08-05T16:06:20.377Z,46.56
2022-08-05T16:08:50.362Z,46.74
2022-08-05T16:11:20.821Z,46.97
2022-08-05T16:14:05.597Z,47.60
2022-08-05T16:16:35.121Z,48.15
2022-08-05T16:19:02.453Z,48.35
2022-08-05T16:22:00.661Z,48.89
2022-08-05T16:24:40.241Z,47.52
2022-08-05T16:27:05.216Z,47.38
2022-08-05T16:29:37.329Z,48.72
2022-08-05T16:32:09.717Z,48.04
2022-08-05T16:34:39.232Z,47.05
2022-08-05T16:38:03.378Z,47.39
2022-08-05T16:40:05.219Z,47.70
2022-08-05T16:42:34.562Z,47.30
2022-08-05T16:45:02.009Z,46.97
2022-08-05T16:47:36.193Z,48.07
2022-08-05T16:50:13.917Z,47.76
2022-08-05T16:52:45.906Z,48.19
2022-08-05T16:55:16.369Z,45.52
2022-08-05T16:57:53.681Z,45.24
2022-08-05T17:00:34.386Z,45.23
2022-08-05T17:03:15.180Z,45.58
2022-08-05T17:05:51.733Z,45.52
2022-08-05T17:08:36.734Z,44.55
2022-08-05T17:11:12.845Z,44.63
2022-08-05T17:13:44.158Z,45.57
2022-08-05T17:16:29.763Z,45.83
2022-08-05T17:18:59.452Z,46.53
2022-08-05T17:21:35.663Z,46.69
2022-08-05T17:24:14.328Z,46.80
2022-08-05T17:26:53.013Z,47.38
2022-08-05T17:29:22.341Z,47.02
2022-08-05T17:31:58.216Z,47.72
2022-08-05T17:34:29.821Z,48.33
2022-08-05T17:37:00.465Z,49.26
2022-08-05T17:39:34.290Z,50.88
2022-08-05T17:42:17.825Z,50.03
2022-08-05T17:44:51.641Z,49.52
2022-08-05T17:47:23.064Z,51.70
2022-08-05T17:50:04.005Z,50.57
2022-08-05T17:52:35.096Z,50.15
2022-08-05T17:55:21.801Z,49.72
2022-08-05T17:57:50.204Z,50.31
2022-08-05T18:00:18.576Z,50.15
2022-08-05T18:02:47.179Z,51.78
2022-08-05T18:05:16.900Z,51.46
2022-08-05T18:07:44.864Z,51.51
2022-08-05T18:10:20.533Z,51.83
2022-08-05T18:12:49.573Z,52.49
2022-08-05T18:15:16.658Z,51.90
2022-08-05T18:17:58.959Z,52.21
2022-08-05T18:20:32.140Z,52.11
2022-08-05T18:23:11.349Z,52.78
2022-08-05T18:25:45.557Z,53.84
2022-08-05T18:28:16.229Z,51.63
2022-08-05T18:30:51.237Z,50.72
2022-08-05T18:33:23.057Z,51.18
2022-08-05T18:36:04.936Z,51.20
2022-08-05T18:38:37.045Z,51.09
2022-08-05T18:41:56.162Z,50.60
2022-08-05T18:43:58.083Z,51.68
2022-08-05T18:46:33.019Z,51.68
2022-08-05T18:49:23.207Z,50.85
2022-08-05T18:52:16.089Z,51.52
2022-08-05T18:54:45.880Z,51.88
2022-08-05T18:57:15.778Z,52.00
2022-08-05T19:00:02.302Z,52.33
2022-08-05T19:02:32.663Z,53.17
2022-08-05T19:06:05.550Z,52.67
2022-08-05T19:07:49.811Z,53.25
2022-08-05T19:10:28.418Z,53.09
2022-08-05T19:13:02.417Z,53.15
2022-08-05T19:15:58.109Z,54.28
2022-08-05T19:18:21.949Z,53.40
2022-08-05T19:20:52.727Z,54.16
2022-08-05T19:24:05.773Z,54.83
2022-08-05T19:26:13.753Z,55.49
2022-08-05T19:28:43.947Z,54.52
2022-08-05T19:31:12.894Z,56.46
2022-08-05T19:33:48.426Z,55.62
2022-08-05T19:36:25.991Z,56.83
2022-08-05T19:39:00.584Z,56.23
2022-08-05T19:41:58.250Z,55.70
2022-08-05T19:44:18.831Z,55.34
2022-08-05T19:46:46.048Z,55.41
2022-08-05T19:49:17.256Z,56.80
2022-08-05T19:52:04.278Z,56.69
2022-08-05T19:54:34.351Z,56.58
2022-08-05T19:57:08.461Z,57.08
2022-08-05T19:59:55.859Z,57.15
2022-08-05T20:02:33.566Z,57.82
2022-08-05T20:05:09.634Z,57.35
2022-08-05T20:07:48.250Z,58.20
2022-08-05T20:10:19.361Z,59.08
2022-08-05T20:12:49.497Z,59.57
2022-08-05T20:15:48.503Z,58.54
2022-08-05T20:18:10.533Z,59.23
2022-08-05T20:20:57.197Z,59.37
2022-08-05T20:23:40.449Z,60.86
2022-08-05T20:26:15.901Z,60.02
2022-08-05T20:28:56.131Z,60.82
2022-08-05T20:31:43.086Z,61.21
2022-08-05T20:34:16.817Z,60.73
2022-08-05T20:36:48.891Z,61.83
2022-08-05T20:39:17.147Z,60.92
2022-08-05T20:41:45.430Z,60.88
2022-08-05T20:44:29.389Z,60.53
2022-08-05T20:47:03.779Z,61.40
2022-08-05T20:49:33.220Z,61.28
2022-08-05T20:52:05.456Z,61.49
2022-08-05T20:54:42.819Z,61.91
2022-08-05T20:57:41.803Z,62.56
2022-08-05T21:00:35.087Z,62.40
2022-08-05T21:03:07.523Z,62.17
2022-08-05T21:05:53.890Z,62.51
2022-08-05T21:08:32.842Z,63.10
2022-08-05T21:11:12.283Z,63.39
2022-08-05T21:13:55.758Z,63.44
2022-08-05T21:16:29.099Z,63.09
2022-08-05T21:18:59.956Z,63.42
2022-08-05T21:21:39.731Z,63.67
2022-08-05T21:24:19.755Z,64.01
2022-08-05T21:26:53.517Z,64.51
2022-08-05T21:29:31.421Z,64.83
2022-08-05T21:31:59.951Z,65.28
2022-08-05T21:34:28.178Z,64.65
2022-08-05T21:36:55.461Z,65.38
2022-08-05T21:39:26.653Z,65.20
2022-08-05T21:42:01.205Z,65.50
2022-08-05T21:44:29.346Z,65.35
2022-08-05T21:46:57.988Z,65.25
2022-08-05T21:49:58.858Z,65.45
2022-08-05T21:52:22.735Z,65.52
2022-08-05T21:54:56.154Z,65.83
2022-08-05T21:57:31.973Z,66.02
2022-08-05T22:00:10.746Z,66.46
2022-08-05T22:02:38.973Z,66.68
2022-08-05T22:05:09.105Z,66.51
2022-08-05T22:07:39.756Z,66.86
2022-08-05T22:10:26.840Z,67.27
2022-08-05T22:12:57.404Z,66.81
2022-08-05T22:16:01.060Z,67.33
2022-08-05T22:18:14.461Z,67.51
2022-08-05T22:20:41.972Z,67.52
2022-08-05T22:24:02.160Z,67.84
2022-08-05T22:26:35.234Z,67.51
2022-08-05T22:29:03.113Z,68.51
2022-08-05T22:31:31.506Z,68.11
2022-08-05T22:34:20.191Z,68.26
2022-08-05T22:36:56.511Z,68.60
2022-08-05T22:39:32.558Z,69.00
2022-08-05T22:42:12.175Z,68.96
2022-08-05T22:44:48.157Z,68.44
2022-08-05T22:47:28.916Z,68.60
2022-08-05T22:50:20.112Z,68.84
2022-08-05T22:52:51.406Z,69.42
2022-08-05T22:55:21.844Z,69.45
2022-08-05T22:57:53.546Z,69.15
2022-08-05T23:00:23.538Z,69.98
2022-08-05T23:02:53.541Z,69.42
2022-08-05T23:05:22.621Z,70.17
2022-08-05T23:07:51.183Z,68.90
2022-08-05T23:10:20.971Z,69.22
2022-08-05T23:12:54.579Z,70.17
2022-08-05T23:15:29.414Z,69.68
2022-08-05T23:18:03.349Z,70.18
2022-08-05T23:20:37.124Z,69.54
2022-08-05T23:23:05.940Z,69.93
2022-08-05T23:25:51.258Z,70.91
2022-08-05T23:28:22.036Z,72.00
2022-08-05T23:30:53.516Z,71.64
2022-08-05T23:33:26.203Z,71.97
2022-08-05T23:36:10.165Z,71.52
2022-08-05T23:38:37.877Z,71.65
2022-08-05T23:41:04.931Z,72.04
2022-08-05T23:44:04.439Z,72.48
2022-08-05T23:46:21.987Z,72.44
2022-08-05T23:49:00.460Z,72.77
2022-08-05T23:51:56.899Z,72.43
2022-08-05T23:54:30.240Z,73.14
2022-08-05T23:57:03.766Z,72.78
2022-08-05T23:59:37.754Z,73.50
